Time;durP1;ratioP1;P1;durP2;ratioP2;P2;SDS_P1;SDS_P2;PMS_P1;PMS_P2;Temp;Humidity;BMP_temperature;BMP_pressure;BME280_temperature;BME280_humidity;BME280_pressure;Samples;Min_cycle;Max_cycle;Signal;HPM_P1;HPM_P2
2023/10/04 00:00:21;;;;;;;6.97;2.65;;;;;;;12.81;100.00;102396.88;5052454;28;20037;-71
2023/10/04 00:02:55;;;;;;;8.15;2.83;;;;;;;12.81;100.00;102392.38;5069864;28;20143;-70
2023/10/04 00:05:24;;;;;;;14.13;3.85;;;;;;;12.79;100.00;102398.91;5069796;28;20038;-70
2023/10/04 00:07:52;;;;;;;9.30;1.73;;;;;;;12.80;100.00;102400.56;5069842;28;20422;-70
2023/10/04 00:10:19;;;;;;;7.70;2.13;;;;;;;12.77;100.00;102414.31;5057199;28;20029;-70
2023/10/04 00:12:46;;;;;;;8.13;1.90;;;;;;;12.72;100.00;102410.28;5032645;28;20055;-70
2023/10/04 00:15:12;;;;;;;8.57;2.17;;;;;;;12.70;100.00;102406.94;5050764;28;20051;-70
2023/10/04 00:17:42;;;;;;;6.57;1.77;;;;;;;12.71;100.00;102408.63;5050581;28;20064;-70
2023/10/04 00:20:14;;;;;;;7.63;3.25;;;;;;;12.68;100.00;102406.31;5050484;28;20053;-70
2023/10/04 00:22:40;;;;;;;8.25;2.78;;;;;;;12.71;100.00;102421.19;5033005;28;20037;-70
2023/10/04 00:25:11;;;;;;;8.20;2.35;;;;;;;12.72;100.00;102415.66;5050394;28;20023;-70
2023/10/04 00:27:43;;;;;;;10.70;2.80;;;;;;;12.70;100.00;102409.63;5049740;28;20472;-70
2023/10/04 00:30:15;;;;;;;4.88;2.30;;;;;;;12.70;100.00;102417.66;5050222;28;20430;-70
2023/10/04 00:32:41;;;;;;;7.82;1.98;;;;;;;12.67;100.00;102417.19;5052086;28;20061;-70
2023/10/04 00:35:19;;;;;;;5.22;1.75;;;;;;;12.68;100.00;102414.34;5069324;28;20052;-70
2023/10/04 00:37:48;;;;;;;5.50;1.92;;;;;;;12.65;100.00;102413.84;5069240;28;20036;-70
2023/10/04 00:40:21;;;;;;;6.43;2.20;;;;;;;12.61;100.00;102417.88;5069210;28;20028;-70
2023/10/04 00:42:49;;;;;;;8.38;2.67;;;;;;;12.59;100.00;102415.34;5049978;28;20450;-71
2023/10/04 00:45:16;;;;;;;7.93;2.88;;;;;;;12.56;100.00;102421.06;5049883;28;20033;-71
2023/10/04 00:47:50;;;;;;;7.22;2.67;;;;;;;12.55;100.00;102414.03;5049908;28;20136;-70
2023/10/04 00:50:18;;;;;;;6.40;2.22;;;;;;;12.53;100.00;102410.69;5031885;28;20100;-70
2023/10/04 00:53:11;;;;;;;6.90;2.30;;;;;;;12.53;100.00;102412.53;5049446;28;20475;-70
2023/10/04 00:55:43;;;;;;;10.13;3.25;;;;;;;12.47;100.00;102411.38;5049635;28;20072;-70
2023/10/04 00:58:10;;;;;;;5.50;2.33;;;;;;;12.51;100.00;102428.75;5049583;28;20029;-70
2023/10/04 01:00:38;;;;;;;8.48;2.22;;;;;;;12.46;100.00;102423.09;5049752;28;20029;-71
2023/10/04 01:03:05;;;;;;;9.65;2.50;;;;;;;12.48;100.00;102426.44;5049809;28;20028;-70
2023/10/04 01:05:32;;;;;;;8.52;2.97;;;;;;;12.44;100.00;102430.44;5049711;28;20029;-70
2023/10/04 01:07:59;;;;;;;6.70;2.70;;;;;;;12.47;100.00;102436.31;5049627;28;20028;-70
2023/10/04 01:10:26;;;;;;;6.82;2.50;;;;;;;12.41;100.00;102426.25;5049523;28;20051;-70
2023/10/04 01:12:52;;;;;;;7.80;2.58;;;;;;;12.46;100.00;102441.81;5049674;28;20545;-71
2023/10/04 01:15:30;;;;;;;7.18;2.88;;;;;;;12.45;100.00;102432.13;5049538;28;20127;-70
2023/10/04 01:18:03;;;;;;;7.97;2.45;;;;;;;12.45;100.00;102432.97;5049477;28;20040;-70
2023/10/04 01:20:30;;;;;;;6.65;2.20;;;;;;;12.46;100.00;102433.78;5049596;28;20032;-70
2023/10/04 01:23:00;;;;;;;12.50;3.33;;;;;;;12.47;100.00;102440.81;5049448;28;20372;-70
2023/10/04 01:25:31;;;;;;;12.38;2.88;;;;;;;12.44;100.00;102433.97;5049527;28;20021;-70
2023/10/04 01:27:58;;;;;;;7.15;2.40;;;;;;;12.46;100.00;102439.97;5049548;28;20028;-70
2023/10/04 01:30:24;;;;;;;9.07;2.42;;;;;;;12.44;100.00;102443.81;5049219;28;20024;-70
2023/10/04 01:32:50;;;;;;;7.95;2.85;;;;;;;12.44;100.00;102443.81;5049526;28;20037;-70
2023/10/04 01:35:18;;;;;;;14.32;3.58;;;;;;;12.42;100.00;102449.38;5049295;28;20063;-70
2023/10/04 01:37:44;;;;;;;7.55;2.42;;;;;;;12.44;100.00;102446.50;5049423;28;20037;-70
2023/10/04 01:40:12;;;;;;;8.00;2.55;;;;;;;12.44;100.00;102450.03;5052015;28;20029;-70
2023/10/04 01:42:40;;;;;;;10.05;3.30;;;;;;;12.48;100.00;102458.53;5053515;28;20442;-70
2023/10/04 01:45:11;;;;;;;6.72;2.45;;;;;;;12.46;100.00;102445.31;5053173;28;20098;-70
2023/10/04 01:47:36;;;;;;;9.05;3.08;;;;;;;12.47;100.00;102449.69;5053354;28;20144;-70
2023/10/04 01:50:05;;;;;;;12.85;2.67;;;;;;;12.44;100.00;102450.03;5063668;28;20226;-70
2023/10/04 01:52:30;;;;;;;9.02;2.47;;;;;;;12.39;100.00;102435.47;5072320;28;20027;-70
2023/10/04 01:54:56;;;;;;;7.28;2.22;;;;;;;12.47;100.00;102451.50;5072426;28;20396;-70
2023/10/04 01:57:21;;;;;;;7.65;2.60;;;;;;;12.47;100.00;102451.50;5054052;28;20459;-70
2023/10/04 01:59:46;;;;;;;10.85;3.00;;;;;;;12.47;100.00;102455.03;5072170;28;20039;-70
2023/10/04 02:02:14;;;;;;;10.32;3.22;;;;;;;12.47;100.00;102456.84;5072099;28;20025;-70
2023/10/04 02:04:40;;;;;;;7.93;2.80;;;;;;;12.48;100.00;102458.53;5072234;28;20032;-70
2023/10/04 02:07:05;;;;;;;10.15;3.35;;;;;;;12.46;100.00;102439.97;5072061;28;20041;-70
2023/10/04 02:09:30;;;;;;;5.47;2.72;;;;;;;12.47;100.00;102447.00;5072251;28;20111;-71
2023/10/04 02:11:56;;;;;;;8.88;3.17;;;;;;;12.47;100.00;102447.00;5054020;28;20478;-70
2023/10/04 02:14:21;;;;;;;10.63;2.75;;;;;;;12.48;100.00;102445.16;5071989;28;20032;-70
2023/10/04 02:16:46;;;;;;;8.07;2.53;;;;;;;12.45;100.00;102440.16;5071738;28;20064;-70
2023/10/04 02:19:12;;;;;;;15.95;4.60;;;;;;;12.48;100.00;102439.81;5071856;28;20052;-70
2023/10/04 02:21:37;;;;;;;9.25;2.70;;;;;;;12.40;100.00;102426.44;5071734;28;20028;-70
2023/10/04 02:24:03;;;;;;;12.48;3.20;;;;;;;12.49;100.00;102436.94;5071409;28;20123;-70
2023/10/04 02:26:28;;;;;;;7.75;2.53;;;;;;;12.50;100.00;102441.31;5071690;28;20056;-71
2023/10/04 02:28:55;;;;;;;8.90;3.67;;;;;;;12.53;100.00;102436.63;5071546;28;20568;-70
2023/10/04 02:31:21;;;;;;;8.55;2.30;;;;;;;12.54;100.00;102440.97;5054000;28;20032;-71
2023/10/04 02:33:47;;;;;;;6.15;2.33;;;;;;;12.51;100.00;102428.75;5053599;28;20043;-70
2023/10/04 02:36:12;;;;;;;8.75;2.85;;;;;;;12.53;100.00;102437.47;5071527;28;20040;-70
2023/10/04 02:38:38;;;;;;;5.30;2.50;;;;;;;12.53;100.00;102433.97;5071521;28;20055;-70
2023/10/04 02:41:06;;;;;;;9.43;2.28;;;;;;;12.53;100.00;102437.47;5071549;28;20024;-70
2023/10/04 02:43:35;;;;;;;10.55;3.08;;;;;;;12.54;100.00;102439.13;5071421;28;20041;-70
2023/10/04 02:46:00;;;;;;;10.15;3.10;;;;;;;12.55;100.00;102447.97;5071097;28;20035;-70
2023/10/04 02:48:27;;;;;;;8.45;2.60;;;;;;;12.54;100.00;102444.47;5063408;28;20387;-70
2023/10/04 02:50:52;;;;;;;7.32;3.30;;;;;;;12.54;100.00;102447.16;5051867;28;20025;-70
2023/10/04 02:53:19;;;;;;;7.28;2.67;;;;;;;12.53;100.00;102442.81;5052092;28;20056;-70
2023/10/04 02:55:46;;;;;;;9.13;2.83;;;;;;;12.47;100.00;102444.34;5052127;28;20112;-70
2023/10/04 02:58:13;;;;;;;9.20;3.20;;;;;;;12.50;100.00;102446.66;5051933;28;20040;-71
2023/10/04 03:00:46;;;;;;;7.00;2.83;;;;;;;12.48;100.00;102450.53;5052058;28;20033;-71
2023/10/04 03:03:19;;;;;;;8.80;2.83;;;;;;;12.49;100.00;102446.81;5051947;28;20090;-70
2023/10/04 03:05:45;;;;;;;8.18;3.08;;;;;;;12.47;100.00;102447.00;5034596;28;20116;-70
2023/10/04 03:08:11;;;;;;;6.85;2.33;;;;;;;12.49;100.00;102446.81;5051882;28;20124;-70
2023/10/04 03:10:37;;;;;;;9.18;2.38;;;;;;;12.40;100.00;102437.16;5051896;28;20132;-70
2023/10/04 03:13:06;;;;;;;7.18;2.72;;;;;;;12.42;100.00;102449.38;5051752;28;20116;-70
2023/10/04 03:15:32;;;;;;;8.82;3.83;;;;;;;12.41;100.00;102452.19;5051906;28;20156;-70
2023/10/04 03:17:59;;;;;;;5.88;2.70;;;;;;;12.40;100.00;102456.72;5033538;28;20543;-70
2023/10/04 03:20:25;;;;;;;8.70;2.60;;;;;;;12.39;100.00;102470.25;5051574;28;20423;-70
2023/10/04 03:23:06;;;;;;;10.60;3.20;;;;;;;12.33;100.00;102462.91;5051555;28;20044;-70
2023/10/04 03:25:31;;;;;;;5.50;2.65;;;;;;;12.33;100.00;102470.94;5051517;28;20067;-70
2023/10/04 03:27:57;;;;;;;6.65;2.55;;;;;;;12.31;100.00;102473.75;5051603;28;20044;-70
2023/10/04 03:30:22;;;;;;;7.15;2.83;;;;;;;12.28;100.00;102469.59;5051568;28;20029;-70
2023/10/04 03:32:52;;;;;;;11.50;2.63;;;;;;;12.25;100.00;102469.94;5051293;28;20045;-70
2023/10/04 03:35:22;;;;;;;5.72;2.53;;;;;;;12.22;100.00;102483.63;5051337;28;20060;-70
2023/10/04 03:37:58;;;;;;;6.72;2.47;;;;;;;12.21;100.00;102490.00;5033204;28;20383;-70
2023/10/04 03:40:23;;;;;;;11.75;4.13;;;;;;;12.19;100.00;102483.97;5051124;28;20021;-70
2023/10/04 03:42:49;;;;;;;8.70;4.43;;;;;;;12.18;100.00;102482.31;5051171;28;20502;-70
2023/10/04 03:45:22;;;;;;;7.47;2.20;;;;;;;12.16;100.00;102481.66;5051211;28;20033;-70
2023/10/04 03:47:50;;;;;;;8.25;3.38;;;;;;;12.09;100.00;102464.59;5063930;28;20491;-71
2023/10/04 03:50:17;;;;;;;10.48;2.78;;;;;;;12.06;100.00;102464.91;5052512;28;20066;-70
2023/10/04 03:52:43;;;;;;;10.68;3.70;;;;;;;12.06;100.00;102463.09;5070190;28;20443;-70
2023/10/04 03:55:10;;;;;;;8.77;2.67;;;;;;;12.01;100.00;102465.41;5070254;28;20028;-70
2023/10/04 03:57:42;;;;;;;8.05;3.60;;;;;;;11.99;100.00;102470.09;5069810;28;20036;-70
2023/10/04 04:00:12;;;;;;;10.10;2.50;;;;;;;11.98;100.00;102476.44;5069958;28;20107;-70
2023/10/04 04:02:39;;;;;;;9.55;3.53;;;;;;;11.96;100.00;102466.91;5069080;28;20060;-70
2023/10/04 04:05:09;;;;;;;8.70;2.95;;;;;;;11.94;100.00;102459.06;5069731;28;20082;-70
2023/10/04 04:07:34;;;;;;;10.93;3.55;;;;;;;11.93;100.00;102448.53;5069924;28;20031;-70
2023/10/04 04:10:02;;;;;;;8.27;2.58;;;;;;;11.89;100.00;102461.38;5069778;28;20032;-70
2023/10/04 04:12:28;;;;;;;8.95;3.42;;;;;;;11.87;100.00;102468.75;5050301;28;20489;-70
2023/10/04 04:14:53;;;;;;;13.77;2.88;;;;;;;11.88;100.00;102472.25;5050418;28;20028;-70
2023/10/04 04:17:22;;;;;;;10.52;3.92;;;;;;;11.82;100.00;102474.56;5050439;28;20729;-71
2023/10/04 04:19:49;;;;;;;9.50;3.08;;;;;;;11.79;100.00;102469.56;5032420;28;20808;-70
2023/10/04 04:22:15;;;;;;;5.22;2.50;;;;;;;11.77;100.00;102468.03;5050576;28;20029;-71
2023/10/04 04:24:41;;;;;;;14.38;2.85;;;;;;;11.73;100.00;102456.00;5050418;28;20048;-70
2023/10/04 04:27:07;;;;;;;8.95;3.22;;;;;;;11.75;100.00;102468.19;5050294;28;20029;-70
2023/10/04 04:29:32;;;;;;;8.68;2.67;;;;;;;11.72;100.00;102463.19;5050087;28;20112;-71
2023/10/04 04:31:58;;;;;;;7.32;3.67;;;;;;;11.72;100.00;102465.84;5050058;28;20494;-70
2023/10/04 04:34:25;;;;;;;9.10;3.47;;;;;;;11.69;100.00;102460.00;5050175;28;20043;-70
2023/10/04 04:36:51;;;;;;;7.80;3.17;;;;;;;11.65;100.00;102447.97;5050149;28;20040;-70
2023/10/04 04:39:18;;;;;;;9.13;3.08;;;;;;;11.66;100.00;102454.97;5050013;28;20025;-70
2023/10/04 04:41:46;;;;;;;8.60;2.92;;;;;;;11.65;100.00;102458.66;5048020;28;20037;-70
2023/10/04 04:44:11;;;;;;;16.80;4.05;;;;;;;11.62;100.00;102451.81;5037815;28;20043;-70
2023/10/04 04:46:38;;;;;;;17.02;2.97;;;;;;;11.60;100.00;102453.78;5068714;28;20079;-70
2023/10/04 04:49:04;;;;;;;9.93;3.35;;;;;;;11.58;100.00;102456.66;5069081;28;20024;-70
2023/10/04 04:51:31;;;;;;;14.95;4.18;;;;;;;11.57;100.00;102457.63;5051044;28;20043;-70
2023/10/04 04:53:56;;;;;;;14.15;3.80;;;;;;;11.50;100.00;102450.44;5068864;28;20474;-70
2023/10/04 04:56:23;;;;;;;9.93;2.72;;;;;;;11.54;100.00;102452.63;5051023;28;20041;-70
2023/10/04 04:58:49;;;;;;;10.13;2.72;;;;;;;11.54;100.00;102451.78;5068947;28;20041;-70
2023/10/04 05:01:16;;;;;;;13.88;4.10;;;;;;;11.51;100.00;102442.25;5068710;28;21011;-70
2023/10/04 05:03:43;;;;;;;8.93;4.50;;;;;;;11.48;100.00;102449.78;5063901;28;20087;-70
2023/10/04 05:06:30;;;;;;;6.38;2.67;;;;;;;11.49;100.00;102452.28;5049567;28;20029;-70
2023/10/04 05:08:56;;;;;;;6.78;2.40;;;;;;;11.48;100.00;102453.28;5048974;28;20052;-70
2023/10/04 05:11:23;;;;;;;10.70;3.10;;;;;;;11.45;100.00;102458.97;5049372;28;20040;-71
2023/10/04 05:13:50;;;;;;;12.35;4.10;;;;;;;11.47;100.00;102466.78;5031466;28;20066;-71
2023/10/04 05:16:16;;;;;;;8.35;2.95;;;;;;;11.45;100.00;102466.09;5049346;28;20056;-71
2023/10/04 05:18:42;;;;;;;6.95;2.55;;;;;;;11.41;100.00;102462.94;5049427;28;20029;-70
2023/10/04 05:21:10;;;;;;;9.93;3.15;;;;;;;11.40;100.00;102486.16;5031436;28;20446;-70
2023/10/04 05:23:36;;;;;;;12.80;3.72;;;;;;;11.40;100.00;102510.19;5049413;28;20128;-70
2023/10/04 05:26:01;;;;;;;7.70;3.50;;;;;;;11.38;100.00;102517.53;5049253;28;20519;-71
2023/10/04 05:28:29;;;;;;;10.10;4.00;;;;;;;11.37;100.00;102515.88;5031790;28;20040;-71
2023/10/04 05:30:55;;;;;;;7.70;3.08;;;;;;;11.36;100.00;102516.84;5049514;28;20166;-71
2023/10/04 05:33:22;;;;;;;8.60;3.88;;;;;;;11.33;100.00;102514.50;5049105;28;20039;-70
2023/10/04 05:35:53;;;;;;;10.23;3.28;;;;;;;11.30;100.00;102503.31;5049303;28;20079;-71
2023/10/04 05:38:19;;;;;;;10.98;3.33;;;;;;;11.31;100.00;102503.13;5050243;28;20043;-71
2023/10/04 05:40:46;;;;;;;8.10;3.20;;;;;;;11.31;100.00;102508.47;5050318;28;20047;-70
2023/10/04 05:43:13;;;;;;;15.63;4.13;;;;;;;11.26;100.00;102504.63;5068668;28;20036;-71
2023/10/04 05:45:42;;;;;;;16.48;4.43;;;;;;;11.27;100.00;102508.97;5067607;28;20040;-70
2023/10/04 05:48:09;;;;;;;12.80;3.33;;;;;;;11.25;100.00;102517.13;5049343;28;20052;-70
2023/10/04 05:50:34;;;;;;;12.18;3.80;;;;;;;11.24;100.00;102510.13;5067644;28;20510;-70
2023/10/04 05:53:05;;;;;;;12.15;3.38;;;;;;;11.21;100.00;102521.13;5067702;28;20020;-70
2023/10/04 05:55:30;;;;;;;9.82;3.35;;;;;;;11.19;100.00;102526.63;5068254;28;20036;-70
2023/10/04 05:57:56;;;;;;;11.70;3.13;;;;;;;11.19;100.00;102537.31;5068105;28;20032;-70
2023/10/04 06:00:33;;;;;;;8.18;3.08;;;;;;;11.21;100.00;102537.13;5068083;28;20474;-70
2023/10/04 06:03:00;;;;;;;8.00;2.67;;;;;;;11.21;100.00;102545.16;5051173;28;20028;-70
2023/10/04 06:05:27;;;;;;;11.18;3.20;;;;;;;11.22;100.00;102541.50;5065981;28;20048;-70
2023/10/04 06:07:57;;;;;;;9.35;3.83;;;;;;;11.17;100.00;102539.31;5068006;28;20021;-70
2023/10/04 06:10:24;;;;;;;11.63;3.00;;;;;;;11.17;100.00;102533.97;5067887;28;20021;-71
2023/10/04 06:12:52;;;;;;;8.23;2.50;;;;;;;11.23;100.00;102534.31;5068274;28;20052;-71
2023/10/04 06:15:18;;;;;;;8.15;3.28;;;;;;;11.24;100.00;102528.84;5068155;28;20040;-71
2023/10/04 06:17:47;;;;;;;11.60;3.63;;;;;;;11.23;100.00;102543.16;5067325;28;20024;-71
2023/10/04 06:20:24;;;;;;;9.05;2.90;;;;;;;11.22;100.00;102543.34;5050004;28;20033;-71
2023/10/04 06:23:09;;;;;;;9.60;3.40;;;;;;;11.24;100.00;102547.53;5068128;28;20028;-71
2023/10/04 06:25:39;;;;;;;12.15;2.85;;;;;;;11.28;100.00;102558.72;5068549;28;20398;-72
2023/10/04 06:28:05;;;;;;;10.70;3.17;;;;;;;11.27;100.00;102557.88;5052572;28;20023;-69
2023/10/04 06:30:33;;;;;;;7.30;2.85;;;;;;;11.31;100.00;102558.41;5034511;28;20041;-70
2023/10/04 06:33:00;;;;;;;7.50;3.22;;;;;;;11.31;100.00;102564.56;5052505;28;20075;-70
2023/10/04 06:35:27;;;;;;;8.30;2.83;;;;;;;11.30;100.00;102559.41;5052310;28;20090;-70
2023/10/04 06:37:56;;;;;;;11.00;3.38;;;;;;;11.33;100.00;102561.75;5052177;28;20040;-70
2023/10/04 06:40:23;;;;;;;12.40;4.47;;;;;;;11.32;100.00;102566.25;5060666;28;20036;-70
2023/10/04 06:42:50;;;;;;;11.52;3.20;;;;;;;11.39;100.00;102569.13;5071329;28;20107;-69
2023/10/04 06:45:17;;;;;;;12.43;2.65;;;;;;;11.40;100.00;102566.31;5071249;28;20047;-69
2023/10/04 06:47:44;;;;;;;8.77;2.65;;;;;;;11.44;100.00;102563.31;5071484;28;20131;-69
2023/10/04 06:50:32;;;;;;;11.90;3.97;;;;;;;11.46;100.00;102563.97;5053539;28;20032;-69
2023/10/04 06:52:58;;;;;;;13.30;3.95;;;;;;;11.51;100.00;102567.00;5071056;28;20044;-69
2023/10/04 06:55:24;;;;;;;10.52;3.65;;;;;;;11.52;100.00;102566.84;5052918;28;20040;-69
2023/10/04 06:57:50;;;;;;;10.38;2.58;;;;;;;11.59;100.00;102569.72;5071121;28;20032;-70
2023/10/04 07:00:17;;;;;;;7.07;2.72;;;;;;;11.63;100.00;102569.25;5070871;28;20028;-69
2023/10/04 07:02:54;;;;;;;12.05;4.88;;;;;;;11.69;100.00;102565.09;5071012;28;20028;-69
2023/10/04 07:05:21;;;;;;;13.45;2.97;;;;;;;11.72;100.00;102569.28;5071004;28;20028;-69
2023/10/04 07:07:48;;;;;;;8.95;2.53;;;;;;;11.75;100.00;102569.78;5035982;28;20035;-70
2023/10/04 07:10:20;;;;;;;7.95;2.50;;;;;;;11.81;100.00;102578.97;5052544;28;20078;-70
2023/10/04 07:12:54;;;;;;;9.18;3.58;;;;;;;11.85;100.00;102585.69;5070701;28;20364;-70
2023/10/04 07:15:20;;;;;;;9.50;3.00;;;;;;;11.92;100.00;102583.22;5054118;28;20032;-69
2023/10/04 07:17:49;;;;;;;13.52;3.38;;;;;;;11.99;100.00;102584.25;5052686;28;20032;-69
2023/10/04 07:20:16;;;;;;;8.18;2.97;;;;;;;12.06;100.00;102583.44;5070571;28;20375;-69
2023/10/04 07:22:50;;;;;;;6.63;3.13;;;;;;;12.10;100.00;102575.91;5070595;28;20518;-69
2023/10/04 07:25:16;;;;;;;18.83;4.03;;;;;;;12.20;100.00;102579.25;5055624;28;20391;-70
2023/10/04 07:27:46;;;;;;;11.77;3.22;;;;;;;12.29;100.00;102582.81;5055091;28;20044;-66
2023/10/04 07:30:13;;;;;;;10.80;3.63;;;;;;;12.36;100.00;102586.47;5048509;28;20044;-72
2023/10/04 07:32:43;;;;;;;8.48;2.95;;;;;;;12.43;100.00;102575.97;5052051;28;20039;-70
2023/10/04 07:35:11;;;;;;;14.25;4.28;;;;;;;12.48;100.00;102579.81;5058409;28;20095;-70
2023/10/04 07:37:37;;;;;;;11.00;3.58;;;;;;;12.59;100.00;102586.66;5063620;28;20487;-70
2023/10/04 07:40:09;;;;;;;17.00;4.53;;;;;;;12.67;100.00;102589.34;5057222;28;20039;-70
2023/10/04 07:42:34;;;;;;;10.02;3.47;;;;;;;12.73;100.00;102598.53;5053141;28;20391;-70
2023/10/04 07:45:00;;;;;;;13.07;3.70;;;;;;;12.78;100.00;102590.84;5045840;28;20044;-70
2023/10/04 07:47:26;;;;;;;13.07;3.25;;;;;;;12.84;100.00;102597.38;5069939;28;20053;-70
2023/10/04 07:49:51;;;;;;;13.38;4.28;;;;;;;12.85;100.00;102602.56;5051557;28;20047;-70
2023/10/04 07:52:16;;;;;;;8.15;3.35;;;;;;;12.89;100.00;102605.72;5069793;28;20086;-70
2023/10/04 07:54:42;;;;;;;9.45;3.45;;;;;;;12.98;100.00;102604.72;5069930;28;20033;-70
2023/10/04 07:57:09;;;;;;;16.88;4.85;;;;;;;13.07;100.00;102603.72;5069585;28;20041;-70
2023/10/04 07:59:36;;;;;;;9.80;3.17;;;;;;;13.18;100.00;102615.91;5069544;28;20032;-69
2023/10/04 08:02:03;;;;;;;16.23;3.67;;;;;;;13.22;100.00;102617.22;5069459;28;20040;-69
2023/10/04 08:04:29;;;;;;;10.00;2.90;;;;;;;13.32;100.00;102612.56;5069585;28;20024;-70
2023/10/04 08:06:54;;;;;;;13.00;3.78;;;;;;;13.43;100.00;102621.25;5069639;28;20441;-70
2023/10/04 08:09:21;;;;;;;11.85;3.30;;;;;;;13.53;100.00;102625.38;5069664;28;20029;-70
2023/10/04 08:11:47;;;;;;;6.05;3.10;;;;;;;13.69;100.00;102623.66;5040392;28;20444;-70
2023/10/04 08:14:12;;;;;;;12.57;5.20;;;;;;;13.81;100.00;102617.75;5066989;28;20111;-70
2023/10/04 08:16:38;;;;;;;9.40;3.28;;;;;;;13.89;100.00;102622.25;5068482;28;20028;-70
2023/10/04 08:19:04;;;;;;;16.17;3.90;;;;;;;13.92;100.00;102616.53;5051283;28;20732;-70
2023/10/04 08:21:30;;;;;;;12.75;4.15;;;;;;;13.94;100.00;102619.88;5069257;28;20407;-69
2023/10/04 08:23:57;;;;;;;9.88;3.30;;;;;;;13.98;100.00;102620.34;5069376;28;20033;-70
2023/10/04 08:26:23;;;;;;;8.57;3.20;;;;;;;14.00;100.00;102621.84;5050905;28;20036;-70
2023/10/04 08:28:48;;;;;;;11.05;4.57;;;;;;;14.08;100.00;102620.13;5047342;28;20024;-69
2023/10/04 08:31:16;;;;;;;14.73;3.47;;;;;;;14.13;100.00;102621.28;5038546;28;20094;-69
2023/10/04 08:33:43;;;;;;;10.82;4.35;;;;;;;14.18;100.00;102624.25;5069187;28;20056;-70
2023/10/04 08:36:18;;;;;;;17.90;5.32;;;;;;;14.20;100.00;102627.59;5063423;28;20033;-70
2023/10/04 08:38:45;;;;;;;10.43;2.97;;;;;;;14.21;100.00;102625.75;5069097;28;20024;-69
2023/10/04 08:41:11;;;;;;;7.28;3.17;;;;;;;14.30;100.00;102634.59;5052658;28;20488;-70
2023/10/04 08:43:37;;;;;;;11.52;3.05;;;;;;;14.31;100.00;102623.69;5031732;28;20029;-70
2023/10/04 08:46:04;;;;;;;8.48;3.53;;;;;;;14.42;100.00;102638.53;5049774;28;20083;-70
2023/10/04 08:48:30;;;;;;;11.77;3.75;;;;;;;14.47;100.00;102636.16;5049658;28;20017;-70
2023/10/04 08:51:33;;;;;;;9.98;3.63;;;;;;;14.54;100.00;102639.84;5055515;28;20036;-70
2023/10/04 08:54:26;;;;;;;14.57;4.57;;;;;;;14.54;100.00;102630.91;5049587;28;20028;-71
2023/10/04 08:57:17;;;;;;;8.40;3.10;;;;;;;14.51;100.00;102636.63;5057927;28;20044;-69
2023/10/04 08:59:44;;;;;;;8.63;3.00;;;;;;;14.49;100.00;102636.81;5064946;28;20036;-70
2023/10/04 09:02:13;;;;;;;11.23;3.00;;;;;;;14.52;100.00;102639.16;5049699;28;20032;-70
2023/10/04 09:04:39;;;;;;;9.90;3.10;;;;;;;14.58;100.00;102640.31;5049502;28;20056;-70
2023/10/04 09:07:11;;;;;;;12.40;4.07;;;;;;;14.63;100.00;102640.59;5055215;28;20200;-72
2023/10/04 09:09:38;;;;;;;8.95;3.45;;;;;;;14.66;100.00;102637.56;5068804;28;20043;-72
2023/10/04 09:12:06;;;;;;;11.23;3.05;;;;;;;14.75;100.00;102646.38;5068672;28;20025;-72
2023/10/04 09:14:32;;;;;;;12.07;3.92;;;;;;;14.76;100.00;102638.16;5068658;28;20051;-72
2023/10/04 09:17:12;;;;;;;14.93;3.65;;;;;;;14.81;100.00;102641.13;5069133;28;20090;-71
2023/10/04 09:19:38;;;;;;;11.73;3.30;;;;;;;14.80;100.00;102635.91;5068322;28;20025;-72
2023/10/04 09:22:08;;;;;;;11.02;3.92;;;;;;;14.76;100.00;102638.16;5068433;28;20024;-72
2023/10/04 09:24:55;;;;;;;11.13;3.65;;;;;;;14.81;100.00;102641.13;5066933;28;20478;-72
2023/10/04 09:27:21;;;;;;;10.10;3.25;;;;;;;14.88;100.00;102641.22;5031393;28;20033;-70
2023/10/04 09:29:48;;;;;;;10.88;2.83;;;;;;;14.91;100.00;102635.50;5048514;28;20061;-73
2023/10/04 09:32:14;;;;;;;10.75;3.80;;;;;;;14.99;100.00;102631.91;5048662;28;20031;-71
2023/10/04 09:34:39;;;;;;;10.45;3.45;;;;;;;15.03;100.00;102630.53;5051449;28;20032;-72
2023/10/04 09:37:18;;;;;;;12.05;4.68;;;;;;;15.09;100.00;102625.25;5067241;28;20025;-71
2023/10/04 09:39:43;;;;;;;12.95;3.53;;;;;;;15.13;100.00;102620.34;5050223;28;20024;-72
2023/10/04 09:42:14;;;;;;;10.80;3.63;;;;;;;15.20;100.00;102621.28;5068393;28;20035;-72
2023/10/04 09:44:40;;;;;;;11.68;3.78;;;;;;;15.27;100.00;102621.38;5061421;28;20056;-71
2023/10/04 09:47:07;;;;;;;12.38;3.83;;;;;;;15.23;100.00;102628.16;5048691;28;20411;-71
2023/10/04 09:49:35;;;;;;;12.80;3.58;;;;;;;15.21;100.00;102625.63;5049214;28;20033;-71
2023/10/04 09:52:06;;;;;;;10.20;2.78;;;;;;;15.19;100.00;102629.53;5049359;28;20041;-72
2023/10/04 09:54:31;;;;;;;16.33;4.35;;;;;;;15.33;100.00;102637.63;5031198;28;20621;-72
2023/10/04 09:56:57;;;;;;;13.43;3.80;;;;;;;15.37;100.00;102629.16;5049241;28;20040;-72
2023/10/04 09:59:23;;;;;;;17.00;3.60;;;;;;;15.48;100.00;102640.31;5049068;28;20078;-71
2023/10/04 10:01:55;;;;;;;11.68;3.50;;;;;;;15.60;100.00;102639.84;5052582;28;20021;-72
2023/10/04 10:04:27;;;;;;;;;;;;;;;15.74;100.00;102645.22;5053403;28;20037;-72
2023/10/04 10:06:53;;;;;;;;;;;;;;;15.81;100.00;102629.19;5035317;28;19912;-72
2023/10/04 10:09:20;;;;;;;10.73;4.13;;;;;;;15.76;100.00;102651.25;5034807;28;20386;-72
2023/10/04 10:11:52;;;;;;;11.48;3.88;;;;;;;15.72;100.00;102649.97;5052999;28;20024;-71
2023/10/04 10:14:19;;;;;;;9.32;2.90;;;;;;;15.75;100.00;102651.47;5052761;28;20021;-71
2023/10/04 10:16:46;;;;;;;11.07;3.92;;;;;;;15.77;100.00;102650.25;5052563;28;20090;-71
2023/10/04 10:19:12;;;;;;;10.52;3.13;;;;;;;15.72;100.00;102655.38;5034523;28;20130;-71
2023/10/04 10:22:03;;;;;;;9.23;3.50;;;;;;;15.72;100.00;102662.59;5052620;28;20106;-72
2023/10/04 10:24:28;;;;;;;12.80;3.10;;;;;;;15.70;100.00;102659.25;5052533;28;20992;-71
2023/10/04 10:27:23;;;;;;;11.48;3.53;;;;;;;15.69;100.00;102657.56;5056665;28;20037;-71
2023/10/04 10:29:50;;;;;;;7.57;2.92;;;;;;;15.72;100.00;102646.47;5031438;28;20561;-73
2023/10/04 10:32:22;;;;;;;9.02;3.92;;;;;;;15.81;100.00;102649.88;5051542;28;20091;-73
2023/10/04 10:34:49;;;;;;;;;;;;;;;15.97;100.00;102649.66;5053249;28;20107;-73
2023/10/04 10:37:17;;;;;;;12.88;3.70;;;;;;;15.97;100.00;102642.41;5067381;28;19916;-73
2023/10/04 10:39:45;;;;;;;14.80;4.00;;;;;;;15.95;100.00;102633.69;5056867;28;20033;-73
2023/10/04 10:42:11;;;;;;;8.85;3.58;;;;;;;15.97;100.00;102644.28;5052184;28;20248;-73
2023/10/04 10:44:39;;;;;;;10.93;3.33;;;;;;;16.00;100.00;102635.81;5017486;28;20028;-73
2023/10/04 10:47:06;;;;;;;12.52;3.95;;;;;;;15.95;100.00;102638.25;5033824;28;20076;-73
2023/10/04 10:49:40;;;;;;;10.73;3.45;;;;;;;15.91;100.00;102643.19;5051863;28;20044;-73
2023/10/04 10:52:31;;;;;;;7.97;3.38;;;;;;;15.97;100.00;102637.03;5058187;28;20055;-73
2023/10/04 10:54:58;;;;;;;7.13;3.33;;;;;;;16.03;100.00;102637.31;5016256;28;20107;-73
2023/10/04 10:57:28;;;;;;;7.97;2.78;;;;;;;16.12;100.00;102634.31;5059956;28;20025;-73
2023/10/04 10:59:54;;;;;;;11.05;3.95;;;;;;;16.20;100.00;102634.19;5071256;28;20479;-73
2023/10/04 11:02:21;;;;;;;7.82;2.55;;;;;;;16.27;100.00;102634.28;5071004;28;20024;-73
2023/10/04 11:04:47;;;;;;;8.90;2.53;;;;;;;16.38;100.00;102631.09;5070986;28;20471;-73
2023/10/04 11:07:13;;;;;;;12.90;3.03;;;;;;;16.47;100.00;102634.47;5070837;28;20073;-73
2023/10/04 11:09:40;;;;;;;13.55;4.63;;;;;;;16.50;100.00;102620.63;5061360;28;20025;-73
2023/10/04 11:12:09;;;;;;;9.27;3.10;;;;;;;16.53;100.00;102620.25;5070051;28;20163;-73
2023/10/04 11:14:36;;;;;;;9.90;3.38;;;;;;;16.61;100.00;102624.66;5051913;28;20395;-73
2023/10/04 11:17:03;;;;;;;8.27;3.38;;;;;;;16.54;98.65;102623.78;5070554;28;20037;-73
2023/10/04 11:19:30;;;;;;;12.05;3.20;;;;;;;16.44;98.44;102611.44;5070759;28;20032;-74